Time;durP1;ratioP1;P1;durP2;ratioP2;P2;SDS_P1;SDS_P2;PMS_P1;PMS_P2;Temp;Humidity;BMP_temperature;BMP_pressure;BME280_temperature;BME280_humidity;BME280_pressure;Samples;Min_cycle;Max_cycle;Signal;HPM_P1;HPM_P2
2022/05/22 00:02:10;;;;;;;10.23;9.17;;;12.60;99.90;;;;;;5064846;28;20203;-79
2022/05/22 00:04:37;;;;;;;11.97;10.77;;;12.60;99.90;;;;;;5056534;28;20199;-79
2022/05/22 00:07:05;;;;;;;10.93;9.93;;;12.60;99.90;;;;;;5066429;28;20288;-78
2022/05/22 00:09:32;;;;;;;10.63;9.70;;;12.60;99.90;;;;;;5059206;28;20219;-78
2022/05/22 00:11:59;;;;;;;9.17;8.30;;;12.60;99.90;;;;;;5063603;28;20251;-78
2022/05/22 00:14:26;;;;;;;8.77;7.80;;;12.70;99.90;;;;;;5059963;28;20227;-78
2022/05/22 00:16:54;;;;;;;8.20;7.40;;;12.70;99.90;;;;;;5058686;28;20298;-78
2022/05/22 00:19:27;;;;;;;7.63;6.93;;;12.70;99.90;;;;;;5064674;28;20244;-78
2022/05/22 00:21:54;;;;;;;7.37;6.67;;;12.70;99.90;;;;;;5058392;28;20654;-78
2022/05/22 00:24:26;;;;;;;6.90;6.30;;;12.60;99.90;;;;;;5065493;28;20201;-78
2022/05/22 00:26:53;;;;;;;7.53;6.83;;;12.60;99.90;;;;;;5058404;28;20773;-78
2022/05/22 00:29:21;;;;;;;7.47;6.77;;;12.50;99.90;;;;;;5062694;28;20223;-78
2022/05/22 00:31:48;;;;;;;7.47;6.77;;;12.50;99.90;;;;;;5061683;28;20312;-78
2022/05/22 00:34:16;;;;;;;7.40;6.70;;;12.40;99.90;;;;;;5060464;28;20383;-77
2022/05/22 00:36:44;;;;;;;7.10;6.50;;;12.40;99.90;;;;;;5062052;28;20204;-78
2022/05/22 00:39:11;;;;;;;7.20;6.60;;;12.30;99.90;;;;;;5060966;28;20655;-78
2022/05/22 00:41:39;;;;;;;7.50;6.90;;;12.40;99.90;;;;;;5061688;28;20627;-78
2022/05/22 00:44:08;;;;;;;7.13;6.47;;;12.40;99.90;;;;;;5060077;28;20558;-78
2022/05/22 00:46:36;;;;;;;7.30;6.60;;;12.40;99.90;;;;;;5061823;28;20196;-78
2022/05/22 00:49:09;;;;;;;7.30;6.60;;;12.30;99.90;;;;;;5061216;28;20669;-79
2022/05/22 00:51:39;;;;;;;7.30;6.60;;;12.30;99.90;;;;;;5061701;28;20591;-79
2022/05/22 00:54:10;;;;;;;7.87;6.90;;;12.30;99.90;;;;;;5061984;28;20665;-79
2022/05/22 00:56:43;;;;;;;7.23;6.50;;;12.20;99.90;;;;;;5058831;28;20691;-79
2022/05/22 00:59:15;;;;;;;7.17;6.47;;;12.10;99.90;;;;;;5061741;28;20697;-79
2022/05/22 01:01:43;;;;;;;5.90;5.40;;;12.10;99.90;;;;;;5052937;28;20222;-77
2022/05/22 01:04:15;;;;;;;5.60;5.10;;;12.10;99.90;;;;;;5061568;28;20280;-79
2022/05/22 01:06:51;;;;;;;6.07;4.93;;;12.10;99.90;;;;;;5056797;28;20291;-78
2022/05/22 01:09:21;;;;;;;5.47;4.30;;;12.10;99.90;;;;;;5059207;28;20724;-78
2022/05/22 01:11:49;;;;;;;7.30;4.83;;;12.10;99.90;;;;;;5060710;28;20773;-78
2022/05/22 01:14:22;;;;;;;5.00;4.17;;;12.10;99.90;;;;;;5060791;28;20254;-79
2022/05/22 01:17:01;;;;;;;5.20;4.70;;;12.00;99.90;;;;;;5060091;28;20291;-78
2022/05/22 01:19:28;;;;;;;5.30;4.30;;;11.90;99.90;;;;;;5056158;28;20252;-77
2022/05/22 01:21:59;;;;;;;4.03;3.33;;;11.90;99.90;;;;;;5058241;28;20225;-78
2022/05/22 01:24:27;;;;;;;5.60;4.13;;;11.80;99.90;;;;;;5063449;28;20198;-78
2022/05/22 01:26:56;;;;;;;6.93;6.33;;;11.80;99.90;;;;;;5061849;28;20282;-78
2022/05/22 01:29:31;;;;;;;4.37;3.93;;;11.80;99.90;;;;;;5062947;28;20217;-77
2022/05/22 01:31:59;;;;;;;4.57;3.63;;;11.70;99.90;;;;;;5078516;23;20327;-78
2022/05/22 01:34:26;;;;;;;9.00;4.87;;;11.70;99.90;;;;;;5050599;28;20200;-77
2022/05/22 01:36:53;;;;;;;6.67;6.07;;;11.70;99.90;;;;;;5051764;28;20204;-77
2022/05/22 01:39:22;;;;;;;7.00;5.57;;;11.70;99.90;;;;;;5049703;28;20232;-78
2022/05/22 01:41:51;;;;;;;7.97;5.07;;;11.60;99.90;;;;;;5046603;28;20567;-78
2022/05/22 01:44:20;;;;;;;6.43;5.83;;;11.60;99.90;;;;;;5047958;28;20255;-78
2022/05/22 01:46:47;;;;;;;3.97;3.40;;;11.60;99.90;;;;;;5044253;28;20217;-78
2022/05/22 01:49:15;;;;;;;3.53;3.17;;;11.60;99.90;;;;;;5041657;28;20233;-78
2022/05/22 01:51:43;;;;;;;4.17;3.40;;;11.50;99.90;;;;;;5049658;28;20221;-78
2022/05/22 01:54:12;;;;;;;6.27;5.67;;;11.50;99.90;;;;;;5045083;28;20194;-78
2022/05/22 01:56:42;;;;;;;5.23;4.83;;;11.40;99.90;;;;;;5048006;28;20288;-78
2022/05/22 01:59:12;;;;;;;5.80;5.30;;;11.40;99.90;;;;;;5046291;28;20217;-77
2022/05/22 02:01:45;;;;;;;6.33;5.83;;;11.40;99.90;;;;;;5047203;28;20690;-78
2022/05/22 02:04:12;;;;;;;3.90;3.40;;;11.30;99.90;;;;;;5047989;28;20193;-79
2022/05/22 02:08:19;;;;;;;5.03;4.07;;;11.30;99.90;;;;;;5041863;28;20207;-78
2022/05/22 02:09:29;;;;;;;4.90;3.57;;;11.30;99.90;;;;;;5047545;28;20287;-78
2022/05/22 02:11:58;;;;;;;5.23;4.70;;;11.20;99.90;;;;;;5048980;28;20700;-78
2022/05/22 02:14:25;;;;;;;5.03;4.53;;;11.20;99.90;;;;;;5048289;28;20202;-78
2022/05/22 02:17:06;;;;;;;7.80;7.13;;;11.20;99.90;;;;;;5049685;28;20200;-78
2022/05/22 02:19:43;;;;;;;3.37;3.07;;;11.10;99.90;;;;;;5037784;28;20554;-78
2022/05/22 02:22:10;;;;;;;4.33;3.60;;;11.10;99.90;;;;;;5043857;28;20224;-78
2022/05/22 02:24:38;;;;;;;4.80;3.10;;;11.00;99.90;;;;;;5053427;28;20644;-78
2022/05/22 02:27:14;;;;;;;4.30;3.40;;;11.00;99.90;;;;;;5045848;28;20207;-77
2022/05/22 02:29:41;;;;;;;5.40;3.40;;;11.00;99.90;;;;;;5046172;28;20200;-77
2022/05/22 02:32:09;;;;;;;3.97;3.20;;;11.10;99.90;;;;;;5046479;28;20665;-79
2022/05/22 02:34:36;;;;;;;3.67;3.20;;;11.20;99.90;;;;;;5032212;28;20206;-78
2022/05/22 02:37:04;;;;;;;5.50;3.40;;;11.20;99.90;;;;;;5048303;28;20206;-78
2022/05/22 02:39:31;;;;;;;5.50;3.63;;;11.20;99.90;;;;;;5044772;28;20203;-77
2022/05/22 02:42:06;;;;;;;3.93;3.40;;;11.30;99.90;;;;;;5045106;28;20216;-78
2022/05/22 02:44:35;;;;;;;4.60;3.20;;;11.30;99.90;;;;;;5047877;28;20779;-77
2022/05/22 02:47:02;;;;;;;4.77;3.27;;;11.30;99.90;;;;;;5045307;28;20202;-78
2022/05/22 02:49:31;;;;;;;6.07;3.40;;;11.30;99.90;;;;;;5047409;28;20654;-78
2022/05/22 02:51:57;;;;;;;4.70;3.20;;;11.20;99.90;;;;;;5045371;28;20701;-79
2022/05/22 02:54:24;;;;;;;7.00;3.80;;;11.20;99.90;;;;;;5041805;28;20681;-78
2022/05/22 02:56:57;;;;;;;3.73;3.23;;;11.20;99.90;;;;;;5036817;28;20822;-77
2022/05/22 02:59:45;;;;;;;5.37;3.37;;;11.20;99.90;;;;;;5035791;28;20253;-78
2022/05/22 03:02:33;;;;;;;4.63;3.43;;;11.20;99.90;;;;;;5042878;28;20571;-77
2022/05/22 03:05:00;;;;;;;3.47;3.17;;;11.20;99.90;;;;;;5038888;28;20208;-77
2022/05/22 03:07:28;;;;;;;5.87;3.27;;;11.10;99.90;;;;;;5034105;28;20215;-78
2022/05/22 03:09:59;;;;;;;3.60;3.00;;;11.10;99.90;;;;;;5039127;28;20288;-78
2022/05/22 03:12:30;;;;;;;3.63;2.90;;;11.00;99.90;;;;;;5049499;28;20200;-77
2022/05/22 03:15:06;;;;;;;4.97;3.77;;;11.10;99.90;;;;;;5037149;28;20196;-78
2022/05/22 03:17:38;;;;;;;5.00;3.27;;;11.10;99.90;;;;;;5044190;28;20198;-79
2022/05/22 03:20:07;;;;;;;3.50;3.20;;;11.00;99.90;;;;;;5043657;28;20740;-80
2022/05/22 03:22:36;;;;;;;3.63;3.30;;;11.10;99.90;;;;;;5060778;28;20267;-81
2022/05/22 03:25:04;;;;;;;3.27;2.97;;;11.10;99.90;;;;;;5033448;28;20200;-81
2022/05/22 03:27:31;;;;;;;4.97;3.17;;;11.00;99.90;;;;;;5033514;28;20274;-80
2022/05/22 03:29:59;;;;;;;4.30;3.30;;;10.90;99.90;;;;;;5034182;28;20601;-79
2022/05/22 03:32:28;;;;;;;5.03;3.50;;;10.90;99.90;;;;;;5046101;28;20232;-80
2022/05/22 03:34:55;;;;;;;4.17;3.27;;;10.90;99.90;;;;;;5047231;28;20222;-81
2022/05/22 03:37:24;;;;;;;5.30;3.67;;;10.80;99.90;;;;;;5044338;28;20576;-78
2022/05/22 03:39:52;;;;;;;3.80;3.00;;;10.80;99.90;;;;;;5029666;28;20259;-78
2022/05/22 03:42:19;;;;;;;4.90;3.50;;;10.70;99.90;;;;;;5037791;28;20220;-78
2022/05/22 03:44:46;;;;;;;3.60;3.23;;;10.80;99.90;;;;;;5039234;28;20227;-78
2022/05/22 03:47:14;;;;;;;5.97;3.67;;;10.80;99.90;;;;;;5039464;28;20192;-79
2022/05/22 03:49:53;;;;;;;4.10;3.40;;;10.90;99.90;;;;;;5038205;28;20191;-78
2022/05/22 03:52:20;;;;;;;3.60;3.03;;;10.90;99.90;;;;;;5045436;28;20226;-79
2022/05/22 03:54:47;;;;;;;4.50;3.00;;;11.00;99.90;;;;;;5037386;28;20204;-79
2022/05/22 03:57:16;;;;;;;4.10;3.23;;;11.10;99.90;;;;;;5042288;28;20624;-78
2022/05/22 03:59:43;;;;;;;4.50;3.20;;;11.10;99.90;;;;;;5034179;28;20204;-79
2022/05/22 04:02:12;;;;;;;3.73;3.33;;;11.20;99.90;;;;;;5035859;28;20578;-78
2022/05/22 04:04:40;;;;;;;6.10;3.80;;;11.30;99.90;;;;;;5031629;28;20212;-79
2022/05/22 04:07:22;;;;;;;4.67;3.47;;;11.30;99.90;;;;;;5043145;28;20591;-79
2022/05/22 04:09:55;;;;;;;4.10;3.07;;;11.40;99.90;;;;;;5042160;28;20307;-82
2022/05/22 04:12:32;;;;;;;3.97;3.10;;;11.40;99.90;;;;;;5045019;28;20207;-83
2022/05/22 04:14:59;;;;;;;3.70;3.17;;;11.40;99.90;;;;;;5042908;28;20765;-81
2022/05/22 04:17:26;;;;;;;4.33;3.33;;;11.50;99.90;;;;;;5033376;28;20208;-82
2022/05/22 04:19:57;;;;;;;3.97;3.10;;;11.50;99.90;;;;;;5047194;28;20711;-78
2022/05/22 04:22:25;;;;;;;3.23;3.00;;;11.50;99.90;;;;;;5055006;28;20220;-80
2022/05/22 04:27:38;;;;;;;4.77;4.30;;;11.60;99.90;;;;;;5031078;28;20208;-82
2022/05/22 04:30:07;;;;;;;6.73;6.23;;;11.70;99.90;;;;;;5025934;28;20234;-81
2022/05/22 04:32:43;;;;;;;5.30;4.90;;;11.80;99.90;;;;;;5032399;28;20703;-82
2022/05/22 04:35:11;;;;;;;6.90;6.30;;;12.00;99.90;;;;;;5046947;28;20576;-79
2022/05/22 04:37:40;;;;;;;6.93;6.43;;;12.10;99.90;;;;;;5039007;28;20197;-78
2022/05/22 04:40:10;;;;;;;7.30;6.70;;;12.10;99.90;;;;;;5029131;28;20241;-82
2022/05/22 04:42:38;;;;;;;7.33;6.70;;;12.10;99.90;;;;;;5048755;28;20212;-82
2022/05/22 04:45:08;;;;;;;7.70;7.10;;;12.20;99.90;;;;;;5043816;28;20548;-81
2022/05/22 04:48:05;;;;;;;6.67;6.17;;;12.20;99.90;;;;;;5037386;28;20650;-81
2022/05/22 04:50:53;;;;;;;6.27;5.80;;;12.40;99.90;;;;;;5042017;28;20225;-80
2022/05/22 04:53:31;;;;;;;5.97;5.47;;;12.60;99.90;;;;;;5039173;28;20207;-81
2022/05/22 04:56:01;;;;;;;6.90;6.30;;;12.70;99.90;;;;;;5041276;28;20208;-81
2022/05/22 04:58:34;;;;;;;7.47;6.50;;;12.90;99.90;;;;;;5046551;28;20205;-81
2022/05/22 05:01:11;;;;;;;6.63;6.03;;;13.00;99.90;;;;;;5046065;28;20216;-81
2022/05/22 05:03:46;;;;;;;6.70;6.10;;;13.20;99.90;;;;;;5049224;28;20195;-84
2022/05/22 05:06:13;;;;;;;6.60;6.13;;;13.30;99.90;;;;;;5046235;28;20222;-81
2022/05/22 05:08:44;;;;;;;6.97;6.47;;;13.30;99.90;;;;;;5047004;28;20199;-81
2022/05/22 05:11:17;;;;;;;6.23;5.77;;;13.40;99.90;;;;;;5044253;28;20784;-81
2022/05/22 05:13:51;;;;;;;6.50;6.00;;;13.50;99.90;;;;;;5049623;28;20203;-82
2022/05/22 05:16:18;;;;;;;6.30;5.80;;;13.60;99.90;;;;;;5039413;28;20230;-80
2022/05/22 05:18:56;;;;;;;6.43;5.93;;;13.70;99.90;;;;;;5037311;28;20230;-83
2022/05/22 05:21:24;;;;;;;4.70;4.30;;;13.80;99.90;;;;;;5046919;28;20220;-82
2022/05/22 05:23:56;;;;;;;6.10;5.67;;;13.90;99.90;;;;;;5046482;28;20230;-79
2022/05/22 05:26:25;;;;;;;6.20;5.60;;;14.00;99.90;;;;;;5042288;28;20500;-79
2022/05/22 05:28:54;;;;;;;9.77;5.90;;;14.10;99.90;;;;;;5043089;28;20230;-79
2022/05/22 05:31:40;;;;;;;5.90;5.40;;;14.20;99.90;;;;;;5038614;28;20503;-79
2022/05/22 05:34:07;;;;;;;5.20;4.80;;;14.40;99.90;;;;;;5043071;28;20204;-80
2022/05/22 05:36:39;;;;;;;5.60;5.10;;;14.40;99.90;;;;;;5038962;28;20223;-78
2022/05/22 05:39:30;;;;;;;5.30;4.80;;;14.60;99.90;;;;;;5045627;28;20200;-79
2022/05/22 05:42:11;;;;;;;3.67;2.83;;;14.80;99.90;;;;;;5040648;28;20221;-79
2022/05/22 05:44:38;;;;;;;5.23;4.73;;;15.20;99.90;;;;;;5051521;28;20206;-80
2022/05/22 05:47:26;;;;;;;6.00;5.50;;;15.90;99.90;;;;;;5045188;28;20200;-80
2022/05/22 05:50:23;;;;;;;4.80;2.93;;;16.60;99.90;;;;;;5041524;28;20211;-80
2022/05/22 05:53:01;;;;;;;5.57;5.17;;;17.30;99.90;;;;;;5041183;28;20219;-80
2022/05/22 05:55:42;;;;;;;5.33;4.80;;;17.70;99.90;;;;;;5033486;28;20370;-80
2022/05/22 05:58:41;;;;;;;6.40;5.67;;;18.10;99.90;;;;;;5039646;28;20250;-80
2022/05/22 06:01:27;;;;;;;6.37;5.87;;;18.00;99.90;;;;;;5045312;28;20219;-79
2022/05/22 06:03:56;;;;;;;5.60;5.20;;;17.90;99.90;;;;;;5045422;28;20240;-80
2022/05/22 06:06:24;;;;;;;6.13;5.63;;;17.90;99.90;;;;;;5042456;28;20235;-80
2022/05/22 06:08:53;;;;;;;5.20;4.80;;;18.10;99.90;;;;;;5045123;28;20205;-80
2022/05/22 06:11:40;;;;;;;5.00;4.60;;;18.20;99.90;;;;;;5045741;28;20287;-80
2022/05/22 06:14:29;;;;;;;5.30;4.90;;;18.20;99.90;;;;;;5041958;28;20205;-80
2022/05/22 06:16:56;;;;;;;5.33;4.93;;;18.00;99.90;;;;;;5030827;28;20549;-79
2022/05/22 06:22:17;;;;;;;4.53;4.13;;;17.90;99.90;;;;;;5042171;28;20256;-79
2022/05/22 06:24:46;;;;;;;5.47;5.00;;;17.90;99.90;;;;;;5045077;28;20643;-78
2022/05/22 06:27:33;;;;;;;5.10;4.70;;;18.00;99.90;;;;;;5044799;28;20221;-79
2022/05/22 06:30:21;;;;;;;2.20;2.10;;;17.90;99.90;;;;;;5044808;28;20217;-79
2022/05/22 06:33:08;;;;;;;4.33;2.70;;;17.80;99.90;;;;;;5043941;28;20253;-80
2022/05/22 06:35:55;;;;;;;3.13;2.63;;;18.30;99.90;;;;;;5043817;28;20246;-79
2022/05/22 06:42:12;;;;;;;4.50;4.10;;;19.20;99.90;;;;;;5041183;28;20239;-80
2022/05/22 06:45:03;;;;;;;6.10;5.60;;;19.80;99.90;;;;;;5040096;28;20210;-79
2022/05/22 06:47:35;;;;;;;4.10;3.80;;;20.30;99.90;;;;;;5040643;28;20233;-79
2022/05/22 06:50:23;;;;;;;5.33;4.80;;;20.60;99.90;;;;;;5044178;28;20207;-80
2022/05/22 06:53:15;;;;;;;4.77;4.37;;;20.90;99.90;;;;;;5040787;28;20231;-80
2022/05/22 06:55:48;;;;;;;5.73;5.33;;;21.10;99.90;;;;;;5042445;28;20207;-80
2022/05/22 06:58:34;;;;;;;10.33;6.20;;;21.50;99.90;;;;;;5042016;28;20210;-80
2022/05/22 07:01:40;;;;;;;7.00;6.40;;;21.70;99.90;;;;;;5041867;28;20296;-80
2022/05/22 07:04:42;;;;;;;5.23;4.73;;;21.80;99.90;;;;;;5042735;28;20203;-79
2022/05/22 07:07:42;;;;;;;6.03;5.43;;;21.60;99.90;;;;;;5040494;28;20199;-80
2022/05/22 07:13:44;;;;;;;3.80;3.27;;;22.10;99.90;;;;;;5033262;28;20269;-79
2022/05/22 07:16:41;;;;;;;3.17;2.80;;;22.60;99.90;;;;;;5035035;28;20218;-80
2022/05/22 07:19:18;;;;;;;3.37;3.17;;;22.60;99.90;;;;;;5040058;28;20203;-80
2022/05/22 07:22:09;;;;;;;6.10;3.70;;;22.60;99.90;;;;;;5045537;28;20223;-80
2022/05/22 07:24:56;;;;;;;5.50;5.20;;;22.70;99.90;;;;;;5040897;28;20314;-81
2022/05/22 07:27:36;;;;;;;5.40;5.00;;;22.70;99.90;;;;;;5042499;28;20702;-80
2022/05/22 07:30:12;;;;;;;5.20;4.87;;;22.90;99.90;;;;;;5040971;28;20209;-80
2022/05/22 07:32:56;;;;;;;5.03;4.73;;;23.00;99.90;;;;;;5089010;23;20238;-80
2022/05/22 07:35:39;;;;;;;4.20;3.80;;;23.30;99.90;;;;;;5038116;28;20195;-79
2022/05/22 07:38:25;;;;;;;3.97;3.67;;;23.20;99.90;;;;;;5045564;28;20210;-79
2022/05/22 07:41:15;;;;;;;7.13;3.53;;;23.40;99.90;;;;;;5024816;28;20789;-77
2022/05/22 07:44:07;;;;;;;4.70;4.30;;;23.50;99.90;;;;;;5042174;28;20672;-79
2022/05/22 07:47:06;;;;;;;6.17;5.10;;;23.90;99.90;;;;;;5026198;28;20219;-79
2022/05/22 07:52:46;;;;;;;4.23;3.87;;;23.60;99.90;;;;;;5033759;28;20220;-79
2022/05/22 07:55:32;;;;;;;4.63;3.97;;;23.70;99.90;;;;;;5036145;28;20205;-79
2022/05/22 07:58:19;;;;;;;3.27;2.80;;;23.40;99.90;;;;;;5040978;28;20206;-79
2022/05/22 08:01:08;;;;;;;3.70;3.40;;;23.30;99.90;;;;;;5031597;28;20645;-79
2022/05/22 08:03:53;;;;;;;4.60;4.20;;;23.10;99.90;;;;;;5034303;28;20202;-80
2022/05/22 08:06:40;;;;;;;5.10;4.70;;;23.40;99.90;;;;;;5038532;28;20794;-78
2022/05/22 08:09:40;;;;;;;5.17;4.60;;;23.10;99.90;;;;;;5036365;28;20191;-79
2022/05/22 08:12:08;;;;;;;3.87;3.37;;;23.30;99.90;;;;;;5041702;28;20229;-79
2022/05/22 08:14:36;;;;;;;4.63;4.20;;;23.50;99.90;;;;;;5034614;28;20191;-79
2022/05/22 08:17:04;;;;;;;5.27;4.47;;;23.70;99.90;;;;;;5042425;28;20203;-79
2022/05/22 08:19:31;;;;;;;4.20;3.80;;;23.60;99.90;;;;;;5026143;28;20202;-79
2022/05/22 08:22:16;;;;;;;4.27;3.93;;;23.30;99.90;;;;;;5027769;28;20656;-79
2022/05/22 08:25:02;;;;;;;3.73;3.40;;;23.10;99.90;;;;;;5032791;28;20284;-79
2022/05/22 08:27:30;;;;;;;2.70;2.30;;;23.00;99.90;;;;;;5038968;28;20203;-79
2022/05/22 08:29:57;;;;;;;4.07;3.67;;;23.00;99.90;;;;;;5039991;28;20564;-79
2022/05/22 08:32:26;;;;;;;1.90;1.80;;;23.50;99.90;;;;;;5039898;28;20236;-79
2022/05/22 08:34:54;;;;;;;3.53;3.23;;;23.80;99.90;;;;;;5040406;28;20652;-79
2022/05/22 08:37:22;;;;;;;4.60;4.30;;;23.70;99.90;;;;;;5043842;28;20238;-79
2022/05/22 08:39:49;;;;;;;4.53;4.13;;;23.70;99.90;;;;;;5041964;28;20188;-79
2022/05/22 08:42:25;;;;;;;3.20;2.90;;;23.70;99.90;;;;;;5023615;28;20247;-79
2022/05/22 08:44:57;;;;;;;6.13;4.30;;;23.90;99.90;;;;;;5047803;28;20584;-79
2022/05/22 08:47:31;;;;;;;5.10;4.70;;;23.70;99.90;;;;;;5037535;28;20204;-80
2022/05/22 08:50:02;;;;;;;3.30;3.00;;;23.80;99.90;;;;;;5039248;28;20195;-80
2022/05/22 08:52:37;;;;;;;3.67;3.13;;;23.80;99.90;;;;;;5038618;28;20219;-79
2022/05/22 08:55:09;;;;;;;4.30;3.90;;;24.10;99.90;;;;;;5037342;28;20203;-79
2022/05/22 09:00:28;;;;;;;3.57;3.03;;;24.30;99.90;;;;;;5043563;28;20196;-79
2022/05/22 09:03:03;;;;;;;5.07;4.60;;;24.60;99.90;;;;;;5044395;28;20216;-80
2022/05/22 09:05:33;;;;;;;5.40;4.90;;;24.90;99.90;;;;;;5041473;28;20208;-79
2022/05/22 09:08:06;;;;;;;5.23;4.80;;;24.90;99.90;;;;;;5042659;28;20226;-79
2022/05/22 09:10:48;;;;;;;5.40;5.00;;;25.10;99.90;;;;;;5049857;28;20212;-79
2022/05/22 09:13:26;;;;;;;5.00;4.50;;;25.20;99.90;;;;;;5039693;28;20306;-80
2022/05/22 09:16:01;;;;;;;4.63;4.23;;;25.00;99.90;;;;;;5043688;28;20282;-80
2022/05/22 09:18:33;;;;;;;5.33;4.93;;;25.10;99.90;;;;;;5043438;28;20209;-80
2022/05/22 09:21:11;;;;;;;4.60;4.20;;;25.00;99.90;;;;;;5044125;28;20224;-82
2022/05/22 09:23:57;;;;;;;5.10;4.70;;;25.00;99.90;;;;;;5028454;28;20196;-86
2022/05/22 09:26:46;;;;;;;3.63;3.43;;;25.30;99.90;;;;;;5035717;28;20204;-81
2022/05/22 09:29:37;;;;;;;5.00;4.70;;;25.60;99.90;;;;;;5038937;28;20663;-82
2022/05/22 09:32:12;;;;;;;4.90;4.60;;;26.00;99.90;;;;;;5024736;28;20277;-82
2022/05/22 09:34:51;;;;;;;4.00;3.70;;;26.10;99.80;;;;;;5026804;28;20383;-81
2022/05/22 09:37:30;;;;;;;4.07;3.67;;;26.00;98.00;;;;;;5028544;28;20201;-80
2022/05/22 09:40:10;;;;;;;6.37;4.20;;;25.90;99.00;;;;;;5030447;28;20199;-81
2022/05/22 09:42:59;;;;;;;5.43;5.03;;;25.80;98.80;;;;;;5034180;28;20211;-81
2022/05/22 09:45:38;;;;;;;3.27;2.03;;;25.70;99.60;;;;;;5024481;28;20207;-80
2022/05/22 09:48:24;;;;;;;2.93;2.07;;;26.00;99.20;;;;;;5031560;28;20214;-80
2022/05/22 09:51:00;;;;;;;2.30;1.83;;;26.30;99.40;;;;;;5042097;28;20289;-80
2022/05/22 09:53:44;;;;;;;2.93;1.73;;;26.40;98.70;;;;;;5043976;28;20561;-81
2022/05/22 09:56:21;;;;;;;2.97;2.53;;;26.50;98.30;;;;;;5039631;28;20200;-80
2022/05/22 09:59:00;;;;;;;2.53;2.43;;;26.30;97.80;;;;;;5042506;28;20201;-80
2022/05/22 10:01:32;;;;;;;2.93;2.73;;;26.10;97.30;;;;;;5029925;28;20230;-80
2022/05/22 10:04:15;;;;;;;1.53;1.43;;;26.00;97.90;;;;;;5044652;28;20230;-80
2022/05/22 10:06:48;;;;;;;2.17;1.80;;;26.10;96.40;;;;;;5033354;28;20195;-81
2022/05/22 10:09:23;;;;;;;4.10;3.80;;;26.30;96.30;;;;;;5039394;28;20212;-80
2022/05/22 10:12:04;;;;;;;4.27;3.87;;;26.50;97.40;;;;;;5049067;28;20249;-78
2022/05/22 10:14:44;;;;;;;2.30;1.87;;;26.70;96.70;;;;;;5038897;28;20228;-80
2022/05/22 10:17:24;;;;;;;2.60;2.40;;;26.80;94.60;;;;;;5042269;28;20205;-80
2022/05/22 10:19:59;;;;;;;1.90;1.80;;;26.80;95.00;;;;;;5034011;28;20256;-80
2022/05/22 10:22:35;;;;;;;4.50;4.10;;;27.10;95.10;;;;;;5039137;28;20270;-80
2022/05/22 10:25:21;;;;;;;4.43;4.20;;;27.10;91.80;;;;;;5040457;28;20218;-80
2022/05/22 10:27:58;;;;;;;2.70;2.50;;;27.10;91.20;;;;;;5045307;28;20243;-80
2022/05/22 10:30:31;;;;;;;2.97;2.67;;;26.90;89.70;;;;;;5043902;28;20672;-80
2022/05/22 10:33:04;;;;;;;3.17;2.93;;;26.80;90.70;;;;;;5038038;28;20219;-81
2022/05/22 10:35:45;;;;;;;1.53;1.50;;;26.80;91.40;;;;;;5042090;28;20203;-79
2022/05/22 10:38:18;;;;;;;2.87;2.67;;;26.80;92.30;;;;;;5044992;28;20664;-81
2022/05/22 10:43:37;;;;;;;2.77;2.03;;;27.00;93.10;;;;;;5039578;28;20218;-79
2022/05/22 10:46:05;;;;;;;2.00;1.73;;;26.90;92.70;;;;;;5043810;28;20199;-79
2022/05/22 10:48:35;;;;;;;2.23;1.50;;;26.90;92.60;;;;;;5042383;28;20672;-80
2022/05/22 10:51:06;;;;;;;2.10;1.80;;;26.90;91.30;;;;;;5035449;28;20291;-79
2022/05/22 10:53:38;;;;;;;2.73;2.53;;;26.90;91.50;;;;;;5037181;28;20218;-80
2022/05/22 10:56:07;;;;;;;1.83;1.40;;;26.90;91.30;;;;;;5033803;28;20208;-81
2022/05/22 10:58:39;;;;;;;1.63;1.50;;;26.80;91.00;;;;;;5029179;28;20290;-79
2022/05/22 11:01:16;;;;;;;2.83;2.03;;;26.60;90.30;;;;;;5015340;28;20223;-80
2022/05/22 11:03:43;;;;;;;3.10;1.60;;;26.60;92.10;;;;;;5031093;28;20199;-80
2022/05/22 11:06:17;;;;;;;2.30;2.10;;;26.40;91.90;;;;;;5041988;28;20226;-81
2022/05/22 11:08:49;;;;;;;3.00;2.90;;;26.10;90.90;;;;;;5031580;28;20203;-80
2022/05/22 11:11:19;;;;;;;1.77;1.53;;;26.10;91.90;;;;;;5036769;28;20232;-81
2022/05/22 11:13:48;;;;;;;1.53;1.43;;;26.10;90.70;;;;;;5039992;28;20226;-83
2022/05/22 11:16:25;;;;;;;3.87;3.67;;;26.00;90.60;;;;;;5040137;28;20254;-82
2022/05/22 11:19:08;;;;;;;4.57;4.27;;;25.90;90.30;;;;;;5035305;28;20618;-80
2022/05/22 11:21:40;;;;;;;3.47;2.20;;;25.70;89.30;;;;;;5042378;28;20212;-82
2022/05/22 11:24:18;;;;;;;1.60;1.50;;;25.70;87.40;;;;;;5040385;28;20214;-83
2022/05/22 11:26:59;;;;;;;1.40;1.30;;;26.00;84.40;;;;;;5025062;28;20237;-80
2022/05/22 11:29:58;;;;;;;2.57;2.47;;;26.10;82.50;;;;;;5037424;28;20641;-82
2022/05/22 11:32:42;;;;;;;3.30;3.10;;;26.00;82.40;;;;;;5018896;28;20239;-81
2022/05/22 11:35:38;;;;;;;3.70;3.50;;;26.10;82.60;;;;;;5030076;28;20210;-83
2022/05/22 11:38:25;;;;;;;4.00;3.70;;;26.10;78.90;;;;;;5019759;28;20203;-81
2022/05/22 11:41:02;;;;;;;3.40;3.10;;;25.90;78.10;;;;;;5029397;28;20664;-79
2022/05/22 11:43:47;;;;;;;3.07;2.07;;;25.90;78.10;;;;;;5039704;28;20199;-82
2022/05/22 11:46:24;;;;;;;1.47;1.37;;;25.60;79.50;;;;;;5044546;28;20635;-78
2022/05/22 11:49:05;;;;;;;4.23;3.90;;;25.30;80.70;;;;;;5020204;28;20207;-80
2022/05/22 11:51:46;;;;;;;4.17;3.80;;;25.40;80.30;;;;;;5040052;28;20223;-80
2022/05/22 11:54:27;;;;;;;4.07;3.77;;;25.40;80.80;;;;;;5033539;28;20216;-80
2022/05/22 11:57:09;;;;;;;1.73;1.53;;;25.40;82.40;;;;;;5033428;28;20481;-79
2022/05/22 12:00:00;;;;;;;2.90;2.30;;;25.30;82.80;;;;;;5037098;28;20212;-78
2022/05/22 12:02:42;;;;;;;2.03;1.93;;;25.20;79.90;;;;;;5036809;28;20227;-79
2022/05/22 12:05:38;;;;;;;3.33;3.03;;;24.90;76.30;;;;;;5044787;28;20205;-79
2022/05/22 12:08:30;;;;;;;1.80;1.70;;;24.70;77.20;;;;;;5038080;28;20207;-79
2022/05/22 12:11:03;;;;;;;3.27;1.90;;;24.60;78.50;;;;;;5035021;28;20677;-80
2022/05/22 12:13:35;;;;;;;3.43;2.40;;;24.70;80.80;;;;;;5032222;28;20291;-80
2022/05/22 12:16:07;;;;;;;3.63;3.33;;;24.90;80.70;;;;;;5025191;28;20591;-79
2022/05/22 12:18:50;;;;;;;1.40;1.30;;;25.10;78.60;;;;;;5032422;28;20245;-79
2022/05/22 12:21:28;;;;;;;1.73;1.30;;;25.00;74.60;;;;;;5039447;28;20243;-78
2022/05/22 12:24:05;;;;;;;2.40;1.50;;;25.00;80.30;;;;;;5041937;28;20303;-78
2022/05/22 12:26:34;;;;;;;3.27;3.07;;;25.00;78.70;;;;;;5041803;28;20203;-79
2022/05/22 12:29:05;;;;;;;3.03;2.83;;;25.00;77.80;;;;;;5039990;28;20235;-78
2022/05/22 12:31:42;;;;;;;3.03;2.83;;;25.00;80.70;;;;;;5043104;28;20229;-78
2022/05/22 12:34:15;;;;;;;2.57;2.37;;;24.90;82.40;;;;;;5038734;28;20261;-78
2022/05/22 12:36:45;;;;;;;2.00;1.80;;;25.30;85.60;;;;;;5041860;28;20699;-78
2022/05/22 12:39:14;;;;;;;2.30;1.50;;;25.40;81.70;;;;;;5017771;28;20236;-80
2022/05/22 12:41:58;;;;;;;1.70;1.60;;;25.60;82.00;;;;;;5041035;28;20310;-79
2022/05/22 12:44:25;;;;;;;3.90;3.60;;;25.70;79.50;;;;;;5033455;28;20184;-79
2022/05/22 12:46:54;;;;;;;2.87;2.77;;;25.50;79.70;;;;;;5037933;28;20282;-78
2022/05/22 12:49:24;;;;;;;4.27;3.83;;;25.50;82.90;;;;;;5034884;28;20200;-79
2022/05/22 12:52:05;;;;;;;3.83;3.53;;;25.40;84.00;;;;;;5041733;28;20730;-79
2022/05/22 12:54:34;;;;;;;3.67;3.37;;;25.30;84.00;;;;;;5040346;28;20695;-79
2022/05/22 12:57:15;;;;;;;3.77;3.40;;;25.10;85.30;;;;;;5032517;28;20199;-79
2022/05/22 12:59:54;;;;;;;4.70;3.67;;;25.10;87.20;;;;;;5032939;28;20200;-78
2022/05/22 13:02:39;;;;;;;3.13;2.67;;;25.00;85.00;;;;;;5035461;28;20608;-79
2022/05/22 13:05:18;;;;;;;2.20;2.10;;;24.90;87.70;;;;;;5032507;28;20684;-78
2022/05/22 13:07:45;;;;;;;3.47;3.17;;;24.90;90.90;;;;;;5026034;28;20661;-79
2022/05/22 13:10:22;;;;;;;3.30;3.10;;;24.90;88.90;;;;;;5032113;28;20297;-80
2022/05/22 13:12:55;;;;;;;4.23;3.60;;;24.90;87.00;;;;;;5021219;28;20220;-79
2022/05/22 13:15:26;;;;;;;4.07;3.77;;;24.90;89.20;;;;;;5023502;28;20696;-78
2022/05/22 13:18:12;;;;;;;3.10;2.80;;;24.60;88.90;;;;;;5027080;28;20235;-78
2022/05/22 13:20:53;;;;;;;1.80;1.47;;;24.50;89.30;;;;;;5031271;28;20195;-78
2022/05/22 13:23:36;;;;;;;2.07;1.50;;;24.50;89.10;;;;;;5044958;28;20531;-78
2022/05/22 13:26:07;;;;;;;1.40;1.40;;;24.60;87.80;;;;;;5038111;28;20228;-78
2022/05/22 13:28:48;;;;;;;3.37;3.07;;;24.60;86.30;;;;;;5047494;28;20219;-78
2022/05/22 13:31:31;;;;;;;3.67;3.47;;;24.60;87.30;;;;;;5047556;28;20231;-78
2022/05/22 13:34:08;;;;;;;3.17;2.93;;;24.80;90.00;;;;;;5039866;28;20247;-78
2022/05/22 13:36:45;;;;;;;3.37;3.17;;;24.80;87.90;;;;;;5031076;28;20609;-77
2022/05/22 13:39:18;;;;;;;3.37;2.73;;;25.00;90.10;;;;;;5038192;28;20235;-78
2022/05/22 13:42:12;;;;;;;2.70;2.60;;;24.90;88.90;;;;;;5038186;28;20216;-78
2022/05/22 13:45:12;;;;;;;3.10;2.90;;;25.00;90.40;;;;;;5038118;28;20715;-78
2022/05/22 13:48:09;;;;;;;2.80;2.70;;;24.90;88.10;;;;;;5025844;28;20211;-78
2022/05/22 13:53:47;;;;;;;1.40;1.30;;;25.00;90.90;;;;;;5019979;28;20224;-78